Track Романова Анастасия

Time Latitude Longitude Accuracy (66% radius in meters) Altitude (meters) Speed (km/hour) Bearing (degrees) Battery (%) GPS flag
10:05:07 51.810998 39.391123 8 119.60060602258 0 0 58 1 delete
10:04:55 51.810995 39.391121 6 119.65977176888 0 0 58 1 delete
10:04:43 51.810995 39.391121 6 119.61340144061 0 0 58 1 delete
10:04:31 51.810995 39.391121 6 119.59756488868 0 0 58 1 delete
10:04:19 51.810995 39.391121 6 119.58516797218 0 0 58 1 delete
10:04:07 51.810995 39.391121 4 119.57505209933 0 0 58 1 delete
10:03:58 51.810995 39.391121 4 119.5808582871 0 0 58 1 delete
10:03:46 51.810995 39.391121 6 119.6416432779 0 0 58 1 delete
10:03:28 51.810995 39.391121 6 119.81609861228 0 0 58 1 delete
10:03:19 51.810995 39.391121 4 119.86863165447 0 0 58 1 delete
10:03:07 51.810995 39.391121 6 119.94113973169 0 0 58 1 delete
10:02:55 51.810995 39.391121 4 119.94952852453 0 0 58 1 delete
10:02:40 51.810995 39.391121 6 119.80228478632 0 0 58 1 delete
10:02:28 51.810995 39.391121 6 119.88911073888 0 0 58 1 delete
10:02:16 51.810995 39.391121 4 119.9021469937 0 0 58 1 delete
10:02:04 51.810995 39.391121 4 119.88337280049 0 0 58 1 delete
10:01:52 51.810995 39.391121 4 119.82798852582 0 0 58 1 delete
10:01:31 51.810995 39.391121 4 119.87324581476 0 0 58 1 delete
10:00:21 51.810995 39.391121 4 119.8362051374 0 0 58 1 delete
10:00:09 51.810995 39.391121 4 119.83620624652 0 0 58 1 delete
09:59:54 51.810995 39.391121 4 119.69239975747 0 0 58 1 delete
09:59:39 51.810995 39.391121 4 119.64688768797 0 0 58 1 delete
09:59:15 51.810995 39.391121 4 119.58991384744 0 0 58 1 delete
09:59:03 51.810995 39.391121 4 119.56544815298 0 0 58 1 delete
09:58:54 51.810995 39.391121 4 119.5591315559 0 0 58 1 delete
09:58:42 51.810995 39.391121 4 119.55275475731 0 0 58 1 delete
09:58:09 51.810995 39.391121 4 119.39412947441 0 0 58 1 delete
09:57:51 51.810995 39.391121 4 119.24502351283 0 0 58 1 delete
09:57:39 51.810995 39.391121 4 119.12295679193 0 0 58 1 delete
09:57:24 51.810992 39.391118 8 119.09633139072 0 0 58 1 delete
09:57:12 51.810992 39.391118 8 119.02812592691 0 0 58 1 delete
09:56:51 51.810992 39.391118 8 119.0187157573 0 0 58 1 delete
09:56:39 51.810992 39.391118 4 119.08969371562 0 0 58 1 delete
09:56:27 51.810992 39.391118 6 118.99775602299 0 0 58 1 delete
09:56:15 51.810992 39.391118 6 118.66763682909 0 0 58 1 delete
09:56:00 51.810992 39.391118 4 118.41333012092 0 0 58 1 delete
09:55:51 51.810992 39.391118 6 118.36285591248 0 0 58 1 delete
09:55:39 51.810992 39.391118 6 118.34225625063 0 0 58 1 delete
09:55:27 51.810992 39.391118 6 118.1792844128 0 0 58 1 delete
09:55:15 51.810992 39.391118 8 118.16148284425 0 0 58 1 delete
09:55:03 51.810992 39.391118 6 117.91484638829 0 0 58 1 delete
09:54:51 51.810992 39.391118 6 117.74350833415 0 0 58 1 delete
09:54:39 51.810992 39.391118 8 117.41663484229 0 0 58 1 delete
09:54:24 51.810992 39.391118 6 117.04575967781 0 0 58 1 delete
09:54:12 51.810992 39.391118 6 116.95911111112 0 0 58 1 delete
09:54:00 51.810992 39.391118 4 116.93396936837 0 0 58 1 delete
09:53:48 51.810992 39.391118 4 117.11406358559 0 0 58 1 delete
09:53:36 51.810992 39.391118 6 117.17978977634 0 0 58 1 delete
09:53:24 51.810992 39.391118 6 117.29149893883 0 0 58 1 delete
09:53:12 51.810992 39.391118 4 117.41206292301 0 0 64 1 delete